Time;durP1;ratioP1;P1;durP2;ratioP2;P2;SDS_P1;SDS_P2;PMS_P1;PMS_P2;Temp;Humidity;BMP_temperature;BMP_pressure;BME280_temperature;BME280_humidity;BME280_pressure;Samples;Min_cycle;Max_cycle;Signal;HPM_P1;HPM_P2
2022/02/25 09:57:09;;;;;;;11.43;7.90;;;4.40;99.90;;;;;;3833804;37;20055;-60
2022/02/25 09:59:39;;;;;;;14.55;8.13;;;4.30;99.90;;;;;;4370071;32;20520;-61
2022/02/25 10:02:08;;;;;;;10.85;7.65;;;4.30;99.90;;;;;;4404136;32;20149;-62
2022/02/25 10:04:36;;;;;;;11.10;7.55;;;4.50;99.90;;;;;;4391532;32;20061;-61
2022/02/25 10:07:22;;;;;;;12.80;7.50;;;4.30;99.90;;;;;;4368240;32;20082;-59
2022/02/25 10:09:52;;;;;;;12.50;7.37;;;4.20;99.90;;;;;;4399123;32;20524;-59
2022/02/25 10:12:22;;;;;;;9.82;6.95;;;4.70;99.90;;;;;;4396122;32;20089;-60
2022/02/25 10:14:51;;;;;;;15.90;9.77;;;4.80;99.90;;;;;;4394931;32;20155;-62
2022/02/25 10:17:28;;;;;;;12.43;7.82;;;5.00;99.90;;;;;;4382021;32;20531;-63
2022/02/25 10:20:00;;;;;;;13.18;8.75;;;4.90;99.90;;;;;;4382928;32;20054;-62
2022/02/25 10:22:37;;;;;;;9.43;6.72;;;4.60;99.90;;;;;;4368237;32;20074;-62
2022/02/25 10:25:10;;;;;;;;;;;4.60;99.90;;;;;;4375160;32;20478;-61
2022/02/25 10:27:45;;;;;;;13.43;8.27;;;4.60;99.90;;;;;;4361896;32;20041;-63
2022/02/25 10:30:20;;;;;;;9.85;6.72;;;4.50;99.90;;;;;;4375084;32;20081;-60
2022/02/25 10:32:56;;;;;;;16.98;7.45;;;3.80;99.90;;;;;;4373881;32;20188;-63
2022/02/25 10:35:39;;;;;;;11.43;6.97;;;3.70;99.90;;;;;;4370009;32;20093;-64
2022/02/25 10:38:15;;;;;;;8.35;5.32;;;3.90;99.90;;;;;;4355627;32;20082;-63
2022/02/25 10:40:48;;;;;;;10.75;6.75;;;3.70;99.90;;;;;;4359465;32;20073;-59
2022/02/25 10:43:17;;;;;;;8.85;6.43;;;3.70;99.90;;;;;;4359664;32;20078;-62
2022/02/25 10:45:54;;;;;;;9.57;6.05;;;3.70;99.90;;;;;;4374400;32;20054;-62
2022/02/25 10:48:27;;;;;;;12.23;6.65;;;3.80;99.90;;;;;;4359333;32;20070;-63
2022/02/25 10:51:04;;;;;;;11.23;7.10;;;3.90;99.90;;;;;;4383793;32;20613;-61
2022/02/25 10:53:47;;;;;;;9.43;5.53;;;3.90;99.90;;;;;;4372129;32;20189;-62
2022/02/25 10:56:17;;;;;;;11.93;7.43;;;3.10;99.90;;;;;;4359934;32;20159;-62
2022/02/25 10:58:54;;;;;;;7.90;5.57;;;3.50;99.90;;;;;;4371774;32;20084;-64
2022/02/25 11:01:40;;;;;;;8.07;5.45;;;3.60;99.90;;;;;;4346625;32;20079;-63
2022/02/25 11:04:13;;;;;;;12.52;5.03;;;3.70;99.90;;;;;;4363978;32;20073;-61
2022/02/25 11:06:42;;;;;;;11.12;6.43;;;3.50;99.90;;;;;;4370442;32;20071;-61
2022/02/25 11:09:09;;;;;;;11.70;5.90;;;3.40;99.90;;;;;;4346070;32;20094;-61
2022/02/25 11:11:36;;;;;;;10.90;6.30;;;3.20;99.90;;;;;;4369276;32;20070;-61
2022/02/25 11:14:08;;;;;;;14.18;6.03;;;3.30;99.90;;;;;;4367231;32;20082;-62
2022/02/25 11:16:39;;;;;;;7.90;5.53;;;3.30;99.90;;;;;;4380701;32;20074;-62
2022/02/25 11:19:06;;;;;;;9.80;4.82;;;3.40;99.90;;;;;;4357618;32;20062;-62
2022/02/25 11:21:53;;;;;;;;;;;3.70;99.90;;;;;;4375785;32;20183;-62
2022/02/25 11:24:19;;;;;;;8.40;5.60;;;4.70;99.90;;;;;;4364024;32;19977;-62
2022/02/25 11:26:46;;;;;;;9.18;5.40;;;3.70;99.90;;;;;;4373632;32;20069;-62
2022/02/25 11:29:14;;;;;;;8.27;5.22;;;4.00;99.90;;;;;;4354200;32;20174;-62
2022/02/25 11:31:42;;;;;;;8.90;5.82;;;4.80;99.90;;;;;;4337345;32;20082;-63
2022/02/25 11:34:10;;;;;;;10.68;6.07;;;4.80;99.90;;;;;;4346701;32;20093;-62
2022/02/25 11:36:48;;;;;;;10.18;5.65;;;4.70;99.90;;;;;;4378106;32;20090;-62
2022/02/25 11:39:24;;;;;;;9.73;5.90;;;4.60;99.90;;;;;;4357304;32;20101;-62
2022/02/25 11:41:55;;;;;;;9.52;6.35;;;4.70;99.90;;;;;;4364060;32;20102;-61
2022/02/25 11:44:22;;;;;;;9.63;5.78;;;4.00;99.90;;;;;;4375689;32;20070;-61
2022/02/25 11:46:48;;;;;;;11.65;7.57;;;3.80;99.90;;;;;;4372872;32;20163;-61
2022/02/25 11:49:22;;;;;;;10.60;6.57;;;3.90;99.90;;;;;;4378063;32;20076;-62
2022/02/25 11:51:54;;;;;;;10.20;6.62;;;4.30;99.90;;;;;;4366346;32;20102;-60
2022/02/25 11:54:26;;;;;;;9.27;6.20;;;4.40;99.90;;;;;;4369154;32;20146;-62
2022/02/25 11:57:04;;;;;;;9.18;6.40;;;4.10;99.90;;;;;;4361603;32;20113;-61
2022/02/25 11:59:33;;;;;;;11.80;6.90;;;3.70;99.90;;;;;;4353679;32;20066;-66
2022/02/25 12:02:14;;;;;;;11.48;6.60;;;3.70;99.90;;;;;;4352094;32;20113;-63
2022/02/25 12:04:47;;;;;;;12.43;6.82;;;3.80;99.90;;;;;;4349346;32;20081;-63
2022/02/25 12:07:17;;;;;;;10.88;6.50;;;4.00;99.90;;;;;;4362786;32;20118;-64
2022/02/25 12:09:59;;;;;;;11.73;6.78;;;4.10;99.90;;;;;;4351552;32;20081;-64
2022/02/25 12:12:26;;;;;;;13.18;7.75;;;3.80;99.90;;;;;;4357518;32;20097;-62
2022/02/25 12:15:15;;;;;;;12.18;8.40;;;3.60;99.90;;;;;;4360799;32;20117;-62
2022/02/25 12:17:55;;;;;;;13.90;8.13;;;3.40;99.90;;;;;;4359985;32;20085;-60
2022/02/25 12:20:33;;;;;;;15.02;7.22;;;3.40;99.90;;;;;;4362490;32;20538;-61
2022/02/25 12:23:10;;;;;;;14.23;8.52;;;3.50;99.90;;;;;;4348991;32;20078;-64
2022/02/25 12:25:39;;;;;;;14.45;8.82;;;3.50;99.90;;;;;;4347274;32;20377;-61
2022/02/25 12:28:23;;;;;;;12.93;8.32;;;3.30;99.90;;;;;;4347057;32;20090;-61
2022/02/25 12:31:08;;;;;;;12.65;8.85;;;3.30;99.90;;;;;;4361906;32;20089;-61
2022/02/25 12:33:44;;;;;;;13.40;9.13;;;3.20;99.90;;;;;;4348572;32;20151;-62
2022/02/25 12:36:30;;;;;;;16.57;10.70;;;3.00;99.90;;;;;;4361536;32;20521;-60
2022/02/25 12:39:17;;;;;;;17.50;9.90;;;3.20;99.90;;;;;;4362896;32;20521;-60
2022/02/25 12:42:10;;;;;;;19.92;11.18;;;3.20;99.90;;;;;;4362723;32;20066;-59
2022/02/25 12:44:43;;;;;;;16.45;9.90;;;2.70;99.90;;;;;;4358888;32;20536;-59
2022/02/25 12:47:13;;;;;;;14.57;8.95;;;2.90;99.90;;;;;;4362381;32;20082;-60
2022/02/25 12:49:41;;;;;;;18.67;11.25;;;3.00;99.90;;;;;;4362187;32;20066;-60
2022/02/25 12:52:11;;;;;;;19.35;11.93;;;3.30;99.90;;;;;;4336222;32;20063;-60
2022/02/25 12:54:39;;;;;;;16.15;9.77;;;2.80;99.90;;;;;;4361761;32;20451;-60
2022/02/25 12:57:08;;;;;;;16.92;10.15;;;2.30;99.90;;;;;;4335772;32;20194;-60
2022/02/25 12:59:49;;;;;;;15.45;9.68;;;2.30;99.90;;;;;;4348361;32;20512;-59
2022/02/25 13:02:22;;;;;;;15.40;8.95;;;2.30;99.90;;;;;;4361616;32;20125;-60
2022/02/25 13:04:53;;;;;;;16.40;10.40;;;2.20;99.90;;;;;;4361826;32;20172;-60
2022/02/25 13:07:23;;;;;;;16.65;10.57;;;2.40;99.90;;;;;;4347911;32;20077;-59
2022/02/25 13:09:51;;;;;;;15.35;10.43;;;2.60;99.90;;;;;;4335971;32;20086;-59
2022/02/25 13:12:20;;;;;;;16.17;10.35;;;2.50;99.90;;;;;;4347496;32;20504;-62
2022/02/25 13:14:48;;;;;;;16.87;10.38;;;2.50;99.90;;;;;;4347949;32;20090;-60
2022/02/25 13:17:19;;;;;;;17.50;10.15;;;2.20;99.90;;;;;;4361390;32;20086;-60
2022/02/25 13:20:03;;;;;;;14.30;9.02;;;2.40;99.90;;;;;;4361944;32;20086;-60
2022/02/25 13:22:40;;;;;;;15.00;9.35;;;2.30;99.90;;;;;;4347995;32;20090;-60
2022/02/25 13:25:21;;;;;;;20.15;11.15;;;2.30;99.90;;;;;;4361891;32;20137;-61
2022/02/25 13:27:55;;;;;;;19.65;11.93;;;2.40;99.90;;;;;;4362090;32;20081;-61
2022/02/25 13:30:35;;;;;;;23.23;12.93;;;2.40;99.90;;;;;;4335262;32;20073;-59
2022/02/25 13:33:13;;;;;;;22.27;12.43;;;2.50;99.90;;;;;;4361918;32;20154;-60
2022/02/25 13:35:45;;;;;;;17.00;10.32;;;2.50;99.90;;;;;;4347983;32;20090;-61
2022/02/25 13:38:33;;;;;;;21.20;12.23;;;2.40;99.90;;;;;;4361732;32;20452;-60
2022/02/25 13:41:02;;;;;;;23.50;12.50;;;2.10;99.90;;;;;;4347435;32;20506;-60
2022/02/25 13:43:43;;;;;;;21.33;12.48;;;2.10;99.90;;;;;;4361505;32;20198;-60
2022/02/25 13:46:29;;;;;;;23.00;13.57;;;2.10;99.90;;;;;;4361695;32;20088;-60
2022/02/25 13:52:19;;;;;;;22.87;12.98;;;2.00;99.90;;;;;;4361978;32;20516;-61
2022/02/25 13:54:57;;;;;;;25.42;12.82;;;1.90;99.90;;;;;;4361913;32;20085;-62
2022/02/25 13:57:34;;;;;;;24.75;13.10;;;2.00;99.90;;;;;;4361405;32;20159;-60
2022/02/25 14:00:06;;;;;;;19.52;12.02;;;2.00;99.90;;;;;;4361982;32;20153;-60
2022/02/25 14:02:38;;;;;;;17.92;10.90;;;1.80;99.90;;;;;;4361274;32;20100;-60
2022/02/25 14:05:06;;;;;;;22.05;12.90;;;1.70;99.90;;;;;;4361543;32;20535;-60
2022/02/25 14:07:39;;;;;;;24.17;13.52;;;1.90;99.90;;;;;;4335503;32;20105;-62
2022/02/25 14:10:25;;;;;;;20.90;12.70;;;1.90;99.90;;;;;;4347565;32;20086;-60
2022/02/25 14:12:54;;;;;;;21.52;12.93;;;1.70;99.90;;;;;;4361157;32;20079;-59
2022/02/25 14:15:23;;;;;;;23.70;13.07;;;1.80;99.90;;;;;;4347490;32;20129;-61
2022/02/25 14:17:51;;;;;;;20.27;11.70;;;1.70;99.90;;;;;;4347599;32;20082;-63
2022/02/25 14:20:20;;;;;;;19.23;11.60;;;1.60;99.90;;;;;;4347531;32;20175;-60
2022/02/25 14:22:53;;;;;;;19.27;10.45;;;1.60;99.90;;;;;;4347595;32;20125;-60
2022/02/25 14:25:37;;;;;;;19.65;11.12;;;1.50;99.90;;;;;;4335788;32;20584;-60
2022/02/25 14:28:05;;;;;;;19.40;11.12;;;1.50;99.90;;;;;;4347472;32;20086;-59
2022/02/25 14:30:38;;;;;;;18.83;11.35;;;1.50;99.90;;;;;;4362386;32;20067;-60
2022/02/25 14:33:18;;;;;;;18.67;11.18;;;1.50;99.90;;;;;;4362605;32;20159;-59
2022/02/25 14:36:10;;;;;;;16.35;10.30;;;1.20;99.90;;;;;;4348314;32;20074;-60
2022/02/25 14:38:40;;;;;;;18.35;10.57;;;1.20;99.90;;;;;;4347447;32;20082;-61
2022/02/25 14:41:07;;;;;;;17.77;10.38;;;1.30;99.90;;;;;;4347163;32;20094;-61
2022/02/25 14:43:34;;;;;;;14.82;9.27;;;1.10;99.90;;;;;;4363472;32;20086;-60
2022/02/25 14:46:00;;;;;;;15.23;9.40;;;1.10;99.90;;;;;;4347800;32;20079;-61
2022/02/25 14:48:26;;;;;;;16.40;9.27;;;1.10;99.90;;;;;;4360754;32;20085;-62
2022/02/25 14:50:54;;;;;;;16.45;9.20;;;1.10;99.90;;;;;;4372169;32;20179;-61
2022/02/25 14:53:20;;;;;;;13.57;8.25;;;1.00;99.90;;;;;;4366200;32;20094;-60
2022/02/25 14:55:48;;;;;;;13.38;7.93;;;0.70;99.90;;;;;;4349729;32;20078;-60
2022/02/25 14:58:14;;;;;;;9.55;5.30;;;0.80;99.90;;;;;;4349820;32;20078;-60
2022/02/25 15:00:41;;;;;;;10.63;6.55;;;0.50;99.90;;;;;;4364459;32;20086;-61
2022/02/25 15:03:08;;;;;;;9.57;6.87;;;0.40;99.90;;;;;;4364666;32;20078;-59
2022/02/25 15:05:37;;;;;;;11.85;7.93;;;0.40;99.90;;;;;;4350064;32;20533;-61
2022/02/25 15:08:04;;;;;;;9.65;6.07;;;0.50;99.90;;;;;;4350954;32;20429;-60
2022/02/25 15:10:30;;;;;;;9.65;6.57;;;0.60;99.90;;;;;;4350544;32;20081;-60
2022/02/25 15:12:57;;;;;;;8.05;5.12;;;0.50;99.90;;;;;;4350809;32;20167;-59
2022/02/25 15:15:25;;;;;;;8.77;5.97;;;0.30;99.90;;;;;;4350295;32;20090;-61
2022/02/25 15:17:54;;;;;;;10.38;6.10;;;0.20;99.90;;;;;;4363907;32;20066;-61
2022/02/25 15:20:21;;;;;;;8.55;6.30;;;0.20;99.90;;;;;;4349891;32;20098;-59
2022/02/25 15:22:47;;;;;;;8.77;6.10;;;0.20;99.90;;;;;;4363505;32;20071;-59
2022/02/25 15:25:15;;;;;;;9.05;5.90;;;0.30;99.90;;;;;;4350341;32;20197;-61
2022/02/25 15:27:42;;;;;;;7.80;5.00;;;0.50;99.90;;;;;;4363343;32;20078;-60
2022/02/25 15:30:11;;;;;;;8.05;5.45;;;0.00;99.90;;;;;;4349336;32;20063;-60
2022/02/25 15:32:38;;;;;;;7.90;4.93;;;0.20;99.90;;;;;;4364463;32;20082;-60
2022/02/25 15:35:06;;;;;;;7.62;5.37;;;0.00;99.90;;;;;;4350637;32;20063;-60
2022/02/25 15:37:32;;;;;;;8.38;6.12;;;0.20;99.90;;;;;;4349459;32;20097;-60
2022/02/25 15:39:59;;;;;;;9.23;5.95;;;0.30;99.90;;;;;;4349439;32;20148;-60
2022/02/25 15:42:25;;;;;;;7.95;5.00;;;0.20;99.90;;;;;;4363225;32;20106;-60
2022/02/25 15:44:52;;;;;;;7.62;5.25;;;0.00;99.90;;;;;;4363799;32;20116;-60
2022/02/25 15:47:18;;;;;;;7.97;5.53;;;0.20;99.90;;;;;;4363814;32;20097;-62
2022/02/25 15:49:45;;;;;;;8.35;5.30;;;0.20;99.90;;;;;;4349375;32;20492;-59
2022/02/25 15:52:11;;;;;;;9.20;5.85;;;0.20;99.90;;;;;;4363113;32;20153;-59
2022/02/25 15:54:37;;;;;;;7.93;5.22;;;0.20;99.90;;;;;;4363067;32;20090;-60
2022/02/25 15:57:05;;;;;;;7.97;5.40;;;0.20;99.90;;;;;;4362765;32;20097;-60
2022/02/25 15:59:31;;;;;;;8.93;5.53;;;0.10;99.90;;;;;;4362720;32;20090;-60
2022/02/25 16:01:57;;;;;;;7.60;5.20;;;0.10;99.90;;;;;;4362805;32;20070;-60
2022/02/25 16:04:24;;;;;;;6.60;4.70;;;0.10;99.90;;;;;;4363055;32;20156;-61
2022/02/25 16:06:50;;;;;;;6.78;4.82;;;-0.10;99.90;;;;;;4362398;32;20070;-61
2022/02/25 16:09:18;;;;;;;7.53;5.10;;;0.00;99.90;;;;;;4362898;32;20086;-62
2022/02/25 16:11:45;;;;;;;7.93;5.10;;;-0.20;99.90;;;;;;4362907;32;20117;-59
2022/02/25 16:14:12;;;;;;;8.95;5.07;;;-0.10;99.90;;;;;;4348642;32;20089;-61
2022/02/25 16:16:39;;;;;;;7.93;5.10;;;0.10;99.90;;;;;;4362308;32;20551;-61
2022/02/25 16:19:06;;;;;;;7.65;4.80;;;-0.10;99.90;;;;;;4362543;32;20086;-60
2022/02/25 16:21:33;;;;;;;8.73;4.60;;;-0.20;99.90;;;;;;4362744;32;20097;-59
2022/02/25 16:24:00;;;;;;;7.45;4.72;;;-0.20;99.90;;;;;;4362357;32;20494;-60
2022/02/25 16:26:26;;;;;;;8.40;4.90;;;-0.20;99.90;;;;;;4349171;32;20501;-59
2022/02/25 16:31:32;;;;;;;7.40;4.13;;;-0.20;99.90;;;;;;3834101;37;20059;-60
2022/02/25 16:33:58;;;;;;;7.78;4.82;;;-0.30;99.90;;;;;;4405151;32;20206;-60
2022/02/25 16:36:25;;;;;;;7.25;4.68;;;-0.20;99.90;;;;;;4390356;32;20657;-61
2022/02/25 16:38:53;;;;;;;5.68;3.05;;;-0.20;99.90;;;;;;4404272;32;20532;-61
2022/02/25 16:41:20;;;;;;;7.10;4.18;;;-0.50;99.90;;;;;;4404921;32;20072;-60
2022/02/25 16:43:46;;;;;;;7.03;4.30;;;-0.30;99.90;;;;;;4405079;32;20206;-61
2022/02/25 16:46:13;;;;;;;7.82;4.43;;;-0.20;99.90;;;;;;4404078;32;20149;-61
2022/02/25 16:48:40;;;;;;;7.03;4.40;;;-0.10;99.90;;;;;;4404351;32;20077;-60
2022/02/25 16:51:07;;;;;;;6.72;4.18;;;-0.20;99.90;;;;;;4390088;32;20086;-61
2022/02/25 16:53:33;;;;;;;7.30;4.57;;;-0.20;99.90;;;;;;4404150;32;20073;-60
2022/02/25 16:56:03;;;;;;;7.15;4.82;;;-0.20;99.90;;;;;;4390160;32;20080;-60
2022/02/25 16:58:31;;;;;;;7.37;4.47;;;-0.20;99.90;;;;;;4404225;32;20158;-60
2022/02/25 17:00:57;;;;;;;7.10;4.70;;;-0.20;99.90;;;;;;4390634;32;20158;-60
2022/02/25 17:03:24;;;;;;;8.23;5.10;;;-0.10;99.90;;;;;;4404324;32;20066;-61
2022/02/25 17:05:51;;;;;;;7.65;5.12;;;-0.30;99.90;;;;;;4404451;32;20080;-60
2022/02/25 17:08:18;;;;;;;9.00;5.43;;;-0.20;99.90;;;;;;4391458;32;20094;-61
2022/02/25 17:10:45;;;;;;;7.43;4.53;;;-0.20;99.90;;;;;;4390760;32;20489;-60
2022/02/25 17:13:12;;;;;;;9.27;5.10;;;-0.50;99.90;;;;;;4390181;32;20169;-59
2022/02/25 17:15:38;;;;;;;8.45;5.05;;;-0.40;99.90;;;;;;4390018;32;20575;-59
2022/02/25 17:18:05;;;;;;;7.25;4.72;;;-0.50;99.90;;;;;;4390518;32;20532;-60
2022/02/25 17:20:31;;;;;;;7.80;4.82;;;-0.40;99.90;;;;;;4405337;32;20146;-60
2022/02/25 17:22:57;;;;;;;7.03;4.90;;;-0.30;99.90;;;;;;4396860;32;20093;-61
2022/02/25 17:25:24;;;;;;;7.68;4.93;;;-0.50;99.90;;;;;;4389956;32;20081;-60
2022/02/25 17:27:50;;;;;;;8.05;5.50;;;-0.40;99.90;;;;;;4374894;32;20084;-59
2022/02/25 17:30:17;;;;;;;8.00;5.20;;;-0.40;99.90;;;;;;4374988;32;20558;-60
2022/02/25 17:32:43;;;;;;;6.57;4.85;;;-0.40;99.90;;;;;;4388892;32;20086;-60
2022/02/25 17:35:10;;;;;;;7.45;4.40;;;-0.40;99.90;;;;;;4388792;32;20153;-59
2022/02/25 17:37:36;;;;;;;7.32;4.80;;;-0.60;99.90;;;;;;4388532;32;20504;-60
2022/02/25 17:42:45;;;;;;;6.77;4.87;;;-0.60;99.90;;;;;;3857099;37;20062;-61
2022/02/25 17:45:13;;;;;;;6.87;4.50;;;-0.60;99.90;;;;;;4420073;32;20184;-60
2022/02/25 17:47:40;;;;;;;6.18;4.60;;;-0.90;99.90;;;;;;4418592;32;20441;-60
2022/02/25 17:50:07;;;;;;;6.40;4.37;;;-1.00;99.90;;;;;;4419046;32;20085;-60
2022/02/25 17:52:35;;;;;;;7.60;4.90;;;-1.00;99.90;;;;;;4418804;32;20073;-59
2022/02/25 17:55:02;;;;;;;6.40;4.43;;;-1.00;99.90;;;;;;4420092;32;20058;-59
2022/02/25 17:57:28;;;;;;;7.90;5.40;;;-1.00;99.90;;;;;;4420105;32;20080;-60
2022/02/25 17:59:56;;;;;;;7.72;5.12;;;-1.00;99.90;;;;;;4419062;32;20064;-61
2022/02/25 18:02:24;;;;;;;7.62;5.47;;;-1.10;99.90;;;;;;4420146;32;20560;-60
2022/02/25 18:04:51;;;;;;;6.15;4.32;;;-1.10;99.90;;;;;;4420023;32;20089;-61
2022/02/25 18:07:17;;;;;;;8.45;5.35;;;-1.20;99.90;;;;;;4420155;32;20081;-59
2022/02/25 18:09:44;;;;;;;7.00;4.90;;;-1.20;99.90;;;;;;4407177;32;20092;-61
2022/02/25 18:12:11;;;;;;;7.62;4.97;;;-1.20;99.90;;;;;;4420583;32;20080;-61
2022/02/25 18:14:38;;;;;;;6.65;4.85;;;-1.20;99.90;;;;;;4405885;32;20096;-60
2022/02/25 18:17:04;;;;;;;8.65;5.40;;;-1.20;99.90;;;;;;4419625;32;20077;-62
2022/02/25 18:19:31;;;;;;;11.43;5.85;;;-1.30;99.90;;;;;;4418308;32;20099;-60
2022/02/25 18:21:57;;;;;;;8.48;5.40;;;-1.40;99.90;;;;;;4416409;32;20086;-60
2022/02/25 18:24:23;;;;;;;8.00;5.55;;;-1.50;99.90;;;;;;4404030;32;20112;-61
2022/02/25 18:26:50;;;;;;;8.93;5.75;;;-1.30;99.90;;;;;;4404354;32;20084;-60
2022/02/25 18:29:16;;;;;;;9.02;5.97;;;-1.30;99.90;;;;;;4403423;32;20077;-61
2022/02/25 18:31:43;;;;;;;9.80;6.18;;;-1.30;99.90;;;;;;4407053;32;20079;-60
2022/02/25 18:36:49;;;;;;;8.60;5.17;;;-1.50;99.90;;;;;;3857516;37;20484;-60
2022/02/25 18:39:15;;;;;;;9.35;5.72;;;-1.40;99.90;;;;;;4406428;32;20605;-60
2022/02/25 18:41:42;;;;;;;9.90;6.00;;;-1.20;99.90;;;;;;4419993;32;20080;-59
2022/02/25 18:44:09;;;;;;;9.35;5.90;;;-1.20;99.90;;;;;;4419551;32;20073;-60
2022/02/25 18:46:36;;;;;;;9.48;6.45;;;-1.10;99.90;;;;;;4393459;32;20495;-60
2022/02/25 18:49:03;;;;;;;9.75;7.00;;;-1.00;99.90;;;;;;4420301;32;20092;-59
2022/02/25 18:51:30;;;;;;;9.40;6.40;;;-1.10;99.90;;;;;;4418347;32;20499;-60
2022/02/25 18:53:56;;;;;;;10.93;6.93;;;-1.10;99.90;;;;;;4419739;32;20074;-60
2022/02/25 18:56:23;;;;;;;10.27;5.90;;;-1.00;99.90;;;;;;4405941;32;20100;-60
2022/02/25 18:58:49;;;;;;;9.10;6.35;;;-1.30;99.90;;;;;;4405602;32;20089;-60
2022/02/25 19:01:16;;;;;;;9.38;6.97;;;-1.20;99.90;;;;;;4406139;32;20085;-60
2022/02/25 19:03:43;;;;;;;9.20;5.75;;;-1.40;99.90;;;;;;4419169;32;20089;-61
2022/02/25 19:06:09;;;;;;;9.02;5.45;;;-1.40;99.90;;;;;;4392752;32;20070;-60
2022/02/25 19:08:36;;;;;;;8.50;6.22;;;-1.40;99.90;;;;;;4419567;32;20085;-59
2022/02/25 19:11:02;;;;;;;8.98;5.53;;;-1.20;99.90;;;;;;4405777;32;20084;-61
2022/02/25 19:13:29;;;;;;;8.20;5.60;;;-1.10;99.90;;;;;;4419464;32;20181;-60
2022/02/25 19:15:55;;;;;;;9.35;6.05;;;-1.30;99.90;;;;;;4404823;32;20090;-60
2022/02/25 19:18:21;;;;;;;9.65;5.95;;;-1.30;99.90;;;;;;4419055;32;20077;-61
2022/02/25 19:20:48;;;;;;;8.15;5.55;;;-1.20;99.90;;;;;;4419648;32;20497;-60
2022/02/25 19:23:14;;;;;;;9.02;5.75;;;-1.20;99.90;;;;;;4410620;32;20497;-60
2022/02/25 19:25:43;;;;;;;6.95;4.37;;;-1.10;99.90;;;;;;4390575;32;20158;-59
2022/02/25 19:28:11;;;;;;;8.80;5.97;;;-1.20;99.90;;;;;;4390464;32;20118;-59
2022/02/25 19:30:37;;;;;;;7.97;5.28;;;-1.00;99.90;;;;;;4391438;32;20080;-59
2022/02/25 19:33:03;;;;;;;9.00;5.20;;;-0.90;99.90;;;;;;4390001;32;20078;-60
2022/02/25 19:35:30;;;;;;;8.75;5.40;;;-1.00;99.90;;;;;;4403235;32;20523;-61
2022/02/25 19:37:57;;;;;;;7.45;4.87;;;-0.90;99.90;;;;;;4404145;32;20520;-61
2022/02/25 19:40:23;;;;;;;7.28;4.95;;;-0.90;99.90;;;;;;4403576;32;20085;-61
2022/02/25 19:42:50;;;;;;;7.55;5.00;;;-1.00;99.90;;;;;;4403777;32;20078;-60
2022/02/25 19:45:16;;;;;;;6.68;4.40;;;-0.90;99.90;;;;;;4404345;32;20169;-60
2022/02/25 19:47:43;;;;;;;6.40;4.43;;;-0.80;99.90;;;;;;4382855;32;20129;-59
2022/02/25 19:50:13;;;;;;;7.75;4.30;;;-1.00;99.90;;;;;;4381706;32;20170;-60
2022/02/25 19:52:40;;;;;;;6.32;4.40;;;-0.90;99.90;;;;;;4380633;32;20496;-60
2022/02/25 19:55:08;;;;;;;6.47;4.50;;;-0.80;99.90;;;;;;4393723;32;20469;-60
2022/02/25 19:57:35;;;;;;;6.60;4.47;;;-0.80;99.90;;;;;;4394989;32;20070;-61
2022/02/25 20:00:09;;;;;;;6.87;4.62;;;-0.80;99.90;;;;;;4379926;32;20195;-60
2022/02/25 20:02:36;;;;;;;7.30;4.90;;;-0.70;99.90;;;;;;4393554;32;20074;-60
2022/02/25 20:05:04;;;;;;;6.35;4.62;;;-0.70;99.90;;;;;;4379522;32;20097;-59
2022/02/25 20:07:32;;;;;;;6.85;4.75;;;-0.70;99.90;;;;;;4393452;32;20082;-60
2022/02/25 20:09:59;;;;;;;6.35;4.53;;;-0.60;99.90;;;;;;4394607;32;20069;-59
2022/02/25 20:12:25;;;;;;;6.57;4.40;;;-0.60;99.90;;;;;;4368074;32;20078;-61
2022/02/25 20:14:52;;;;;;;6.75;4.57;;;-0.60;99.90;;;;;;4382335;32;20081;-60
2022/02/25 20:17:18;;;;;;;6.15;4.40;;;-0.80;99.90;;;;;;4397329;32;20080;-61
2022/02/25 20:19:45;;;;;;;6.43;4.28;;;-0.90;99.90;;;;;;4401883;32;20141;-60
2022/02/25 20:22:12;;;;;;;6.90;4.50;;;-0.90;99.90;;;;;;4401256;32;20089;-60
2022/02/25 20:24:38;;;;;;;6.62;4.10;;;-0.90;99.90;;;;;;4370330;32;20078;-60
2022/02/25 20:27:09;;;;;;;5.30;4.00;;;-0.90;99.90;;;;;;4393904;32;20083;-60
2022/02/25 20:29:36;;;;;;;6.35;4.28;;;-1.00;99.90;;;;;;4367032;32;20073;-60
2022/02/25 20:32:04;;;;;;;6.05;4.30;;;-1.10;99.90;;;;;;4379734;32;20112;-61
2022/02/25 20:34:30;;;;;;;5.93;4.15;;;-1.20;99.90;;;;;;4378474;32;20074;-61
2022/02/25 20:36:56;;;;;;;6.45;3.90;;;-1.10;99.90;;;;;;4381307;32;20062;-60
2022/02/25 20:39:23;;;;;;;5.32;3.50;;;-0.90;99.90;;;;;;4380776;32;20086;-61
2022/02/25 20:41:49;;;;;;;5.93;3.50;;;-0.90;99.90;;;;;;4380223;32;20085;-60
2022/02/25 20:44:17;;;;;;;5.80;3.70;;;-0.90;99.90;;;;;;4394324;32;20081;-60
2022/02/25 20:46:44;;;;;;;5.97;3.40;;;-1.00;99.90;;;;;;4378662;32;20579;-61
2022/02/25 20:49:10;;;;;;;5.35;3.58;;;-1.00;99.90;;;;;;4366290;32;20468;-61
2022/02/25 20:51:37;;;;;;;6.15;4.00;;;-1.00;99.90;;;;;;4392813;32;20089;-60
2022/02/25 20:54:03;;;;;;;5.75;3.40;;;-1.00;99.90;;;;;;4378238;32;20085;-60
2022/02/25 20:56:29;;;;;;;5.10;3.12;;;-1.10;99.90;;;;;;4378638;32;20089;-60
2022/02/25 20:58:56;;;;;;;4.90;3.45;;;-1.00;99.90;;;;;;4378169;32;20078;-59
2022/02/25 21:01:23;;;;;;;4.57;3.30;;;-0.90;99.90;;;;;;4393616;32;20092;-61
2022/02/25 21:03:50;;;;;;;6.70;3.78;;;-1.00;99.90;;;;;;4395075;32;20229;-59
2022/02/25 21:06:16;;;;;;;5.55;3.62;;;-1.00;99.90;;;;;;4392367;32;20089;-60
2022/02/25 21:08:43;;;;;;;5.35;3.50;;;-0.80;99.90;;;;;;4392589;32;20073;-60
2022/02/25 21:11:15;;;;;;;6.12;3.70;;;-0.90;99.90;;;;;;4380248;32;20149;-60
2022/02/25 21:13:43;;;;;;;4.97;3.37;;;-0.80;99.90;;;;;;4380959;32;20073;-59
2022/02/25 21:16:10;;;;;;;5.00;3.12;;;-1.00;99.90;;;;;;4395071;32;20097;-61
2022/02/25 21:18:37;;;;;;;3.80;2.62;;;-1.10;99.90;;;;;;4393622;32;20150;-61
2022/02/25 21:21:04;;;;;;;5.87;3.30;;;-1.00;99.90;;;;;;4378517;32;20066;-61
2022/02/25 21:23:31;;;;;;;5.43;3.20;;;-1.00;99.90;;;;;;4378484;32;20077;-60
2022/02/25 21:25:58;;;;;;;7.43;3.60;;;-0.90;99.90;;;;;;4392400;32;20164;-61
2022/02/25 21:28:24;;;;;;;5.40;3.10;;;-0.70;99.90;;;;;;4378180;32;20176;-60
2022/02/25 21:30:51;;;;;;;6.45;3.33;;;-0.90;99.90;;;;;;4391938;32;20077;-60
2022/02/25 21:33:18;;;;;;;5.12;3.37;;;-0.90;99.90;;;;;;4392050;32;20101;-60
2022/02/25 21:35:44;;;;;;;4.25;3.20;;;-0.80;99.90;;;;;;4391787;32;20084;-60
2022/02/25 21:38:10;;;;;;;6.28;3.05;;;-0.90;99.90;;;;;;4378508;32;20113;-61
2022/02/25 21:40:38;;;;;;;5.93;3.42;;;-0.80;99.90;;;;;;4378242;32;20521;-61
2022/02/25 21:43:07;;;;;;;4.90;3.22;;;-0.90;99.90;;;;;;4392191;32;20627;-60
2022/02/25 21:45:34;;;;;;;5.43;3.03;;;-0.90;99.90;;;;;;4377844;32;20146;-61
2022/02/25 21:48:02;;;;;;;4.82;3.40;;;-1.00;99.90;;;;;;4377382;32;20134;-61
2022/02/25 21:50:29;;;;;;;5.25;3.25;;;-1.00;99.90;;;;;;4391934;32;20082;-60
2022/02/25 21:52:56;;;;;;;5.78;3.53;;;-1.00;99.90;;;;;;4377963;32;20081;-60
2022/02/25 21:55:23;;;;;;;5.22;3.65;;;-0.90;99.90;;;;;;4392081;32;20449;-60
2022/02/25 21:57:49;;;;;;;5.25;3.47;;;-0.80;99.90;;;;;;4378455;32;20080;-60
2022/02/25 22:00:16;;;;;;;4.50;3.00;;;-1.00;99.90;;;;;;4391567;32;20081;-61
2022/02/25 22:02:43;;;;;;;6.43;3.40;;;-1.00;99.90;;;;;;4391922;32;20089;-59
2022/02/25 22:05:10;;;;;;;5.03;3.37;;;-1.10;99.90;;;;;;4377949;32;20081;-60
2022/02/25 22:07:39;;;;;;;4.30;2.90;;;-0.90;99.90;;;;;;4391704;32;20158;-60
2022/02/25 22:10:08;;;;;;;4.53;3.17;;;-0.80;99.90;;;;;;4377707;32;20089;-60
2022/02/25 22:12:40;;;;;;;4.45;3.28;;;-1.00;99.90;;;;;;4391794;32;20096;-59
2022/02/25 22:15:09;;;;;;;5.53;3.58;;;-0.80;99.90;;;;;;4378320;32;20076;-60
2022/02/25 22:17:35;;;;;;;5.07;3.53;;;-1.10;99.90;;;;;;4391593;32;20077;-61
2022/02/25 22:20:03;;;;;;;6.45;3.70;;;-1.00;99.90;;;;;;4377534;32;20592;-61
2022/02/25 22:22:29;;;;;;;5.55;3.55;;;-0.90;99.90;;;;;;4391288;32;20181;-60
2022/02/25 22:24:58;;;;;;;5.87;3.70;;;-0.90;99.90;;;;;;4391826;32;20080;-61
2022/02/25 22:27:28;;;;;;;6.53;3.67;;;-0.90;99.90;;;;;;4377338;32;20511;-60
2022/02/25 22:29:55;;;;;;;4.75;3.25;;;-1.00;99.90;;;;;;4391103;32;20097;-61
2022/02/25 22:32:22;;;;;;;4.85;3.40;;;-0.80;99.90;;;;;;4391867;32;20093;-61
2022/02/25 22:34:49;;;;;;;5.30;3.42;;;-0.90;99.90;;;;;;4376679;32;20133;-61
2022/02/25 22:37:16;;;;;;;4.43;3.17;;;-0.80;99.90;;;;;;4391550;32;20072;-60
2022/02/25 22:39:42;;;;;;;5.60;3.67;;;-1.00;99.90;;;;;;4391566;32;20086;-61
2022/02/25 22:42:09;;;;;;;5.68;3.70;;;-0.70;99.90;;;;;;4378145;32;20147;-61
2022/02/25 22:44:35;;;;;;;5.18;3.17;;;-0.70;99.90;;;;;;4377678;32;20546;-60
2022/02/25 22:47:02;;;;;;;6.40;4.30;;;-0.80;99.90;;;;;;4391258;32;20169;-60
2022/02/25 22:49:29;;;;;;;6.22;3.67;;;-1.00;99.90;;;;;;4391588;32;20105;-60
2022/02/25 23:00:27;;;;;;;4.75;3.25;;;-1.00;99.90;;;;;;4366415;32;20476;-62
2022/02/25 23:02:54;;;;;;;6.85;4.15;;;-0.80;99.90;;;;;;4377456;32;20076;-60
2022/02/25 23:08:07;;;;;;;5.57;3.75;;;-0.80;99.90;;;;;;4379602;32;20169;-60
2022/02/25 23:10:39;;;;;;;5.53;4.07;;;-0.70;99.90;;;;;;4377879;32;20085;-61
2022/02/25 23:13:07;;;;;;;5.60;4.05;;;-0.70;99.90;;;;;;4391273;32;20138;-61
2022/02/25 23:15:34;;;;;;;5.78;3.83;;;-0.70;99.90;;;;;;4377233;32;20115;-60
2022/02/25 23:18:00;;;;;;;5.45;3.90;;;-0.70;99.90;;;;;;4391014;32;20081;-61